Bethune, Colorado
Current Conditions -  °F | °C
As of 10:53 PM on Sunday 25 Jan 2015 (Local Time) from KITR Reporting Station
Clear Clear  
Wind Chill: 28°   Ceiling: Unl
Heat Index: 36°   Visibility: 10mi
Dew Point: 29°   Wind: 12mph
Humidity: 76%   Direction: 260°W
Pressure: 30.15"   Gusts: NA
Location:  39.3°N, 102.42°W
Report Text: KITR 260553Z AUTO 26010KT 10SM CLR 02/M02 A3015 RMK AO2 SLP207 T00221017 10094 20006 50003
Loading
Personal Weather Stations






























Interactive Weather Map New forecast layout! Learn more

10-Day Weather Forecast

Advertisements
Track Severe Weather on mobile